Beira, Mozambique
Current Conditions -  °F | °C
As of 2:00 PM on Tuesday 21 Oct 2014 (Local Time) from FQBR Reporting Station
Few Clouds Few Clouds  
Wind Chill: 81°   Ceiling: Unl
Heat Index: 84°   Visibility: 6mi
Dew Point: 70°   Wind: 15mph
Humidity: 70%   Direction: 100°E
Pressure: 30.03"   Gusts: NA
Location:  19.83°S, 34.84°E
Report Text: FQBR 211200Z 10013KT 9999 FEW018 27/21 Q1017
Loading
Personal Weather Stations






























Interactive Weather Map
Tropical Storm Tracking
New forecast layout! Learn more

10-Day Weather Forecast

Advertisements
Track Severe Weather on mobile